createdAt,value
2024-01-05T00:00:28.544Z,6.20
2024-01-05T00:03:00.766Z,6.10
2024-01-05T00:05:30.579Z,6.10
2024-01-05T00:07:58.793Z,6.10
2024-01-05T00:10:27.446Z,6.10
2024-01-05T00:12:56.567Z,6.10
2024-01-05T00:15:25.492Z,6.00
2024-01-05T00:17:53.845Z,6.10
2024-01-05T00:20:22.194Z,6.10
2024-01-05T00:22:51.985Z,6.10
2024-01-05T00:25:22.708Z,6.00
2024-01-05T00:27:54.455Z,6.00
2024-01-05T00:30:23.541Z,6.00
2024-01-05T00:32:51.964Z,6.10
2024-01-05T00:35:20.516Z,6.10
2024-01-05T00:37:48.724Z,6.10
2024-01-05T00:40:18.704Z,6.10
2024-01-05T00:42:47.151Z,6.10
2024-01-05T00:45:15.838Z,6.00
2024-01-05T00:47:45.355Z,6.10
2024-01-05T00:50:13.525Z,6.00
2024-01-05T00:52:41.993Z,6.10
2024-01-05T00:55:10.555Z,6.00
2024-01-05T00:57:40.182Z,6.00
2024-01-05T01:00:11.283Z,6.00
2024-01-05T01:02:43.247Z,6.10
2024-01-05T01:05:12.002Z,6.10
2024-01-05T01:07:42.270Z,6.20
2024-01-05T01:10:11.288Z,6.20
2024-01-05T01:12:41.493Z,6.20
2024-01-05T01:15:11.017Z,6.30
2024-01-05T01:17:39.982Z,6.30
2024-01-05T01:20:09.980Z,6.30
2024-01-05T01:22:38.254Z,6.30
2024-01-05T01:25:07.581Z,6.40
2024-01-05T01:27:36.276Z,6.30
2024-01-05T01:30:09.739Z,6.40
2024-01-05T01:32:38.528Z,6.40
2024-01-05T01:35:07.159Z,6.30
2024-01-05T01:37:35.743Z,6.40
2024-01-05T01:40:06.521Z,6.30
2024-01-05T01:42:35.392Z,6.40
2024-01-05T01:45:05.443Z,6.40
2024-01-05T01:47:34.331Z,6.40
2024-01-05T01:50:03.616Z,6.30
2024-01-05T01:52:32.500Z,6.30
2024-01-05T01:55:00.620Z,6.40
2024-01-05T01:57:39.649Z,6.50
2024-01-05T02:00:11.638Z,6.40
2024-01-05T02:02:42.623Z,6.50
2024-01-05T02:05:11.069Z,6.60
2024-01-05T02:07:39.656Z,6.50
2024-01-05T02:10:09.185Z,6.50
2024-01-05T02:12:37.571Z,6.60
2024-01-05T02:15:07.125Z,6.70
2024-01-05T02:17:36.987Z,6.60
2024-01-05T02:20:07.318Z,6.70
2024-01-05T02:22:38.218Z,6.60
2024-01-05T02:25:09.708Z,6.60
2024-01-05T02:27:39.436Z,6.70
2024-01-05T02:30:09.245Z,6.60
2024-01-05T02:32:37.880Z,6.60
2024-01-05T02:35:06.653Z,6.70
2024-01-05T02:37:35.013Z,6.70
2024-01-05T02:40:03.791Z,6.60
2024-01-05T02:42:33.703Z,6.60
2024-01-05T02:45:02.352Z,6.60
2024-01-05T02:47:30.912Z,6.60
2024-01-05T02:49:59.217Z,6.60
2024-01-05T02:52:27.771Z,6.70
2024-01-05T02:54:57.664Z,6.70
2024-01-05T02:57:26.864Z,6.70
2024-01-05T02:59:57.619Z,6.70
2024-01-05T03:02:26.162Z,6.70
2024-01-05T03:04:54.946Z,6.70
2024-01-05T03:07:24.719Z,6.50
2024-01-05T03:09:53.405Z,6.70
2024-01-05T03:12:23.130Z,6.60
2024-01-05T03:14:51.371Z,6.60
2024-01-05T03:17:21.203Z,6.70
2024-01-05T03:19:49.473Z,6.70
2024-01-05T03:22:18.154Z,6.70
2024-01-05T03:24:46.880Z,6.70
2024-01-05T03:27:16.171Z,6.70
2024-01-05T03:29:45.120Z,6.70
2024-01-05T03:32:13.568Z,6.70
2024-01-05T03:34:43.626Z,6.70
2024-01-05T03:37:12.508Z,6.70
2024-01-05T03:39:41.097Z,6.80
2024-01-05T03:42:09.643Z,6.70
2024-01-05T03:44:38.356Z,6.80
2024-01-05T03:47:07.240Z,6.80
2024-01-05T03:49:36.158Z,6.80
2024-01-05T03:52:06.620Z,6.90
2024-01-05T03:54:35.014Z,6.90
2024-01-05T03:57:04.879Z,6.90
2024-01-05T03:59:33.200Z,6.90
2024-01-05T04:02:02.169Z,6.90
2024-01-05T04:04:30.734Z,6.90
2024-01-05T04:07:00.293Z,6.90
2024-01-05T04:09:29.853Z,6.90
2024-01-05T04:11:58.166Z,7.00
2024-01-05T04:14:26.612Z,6.90
2024-01-05T04:16:54.827Z,6.90
2024-01-05T04:19:23.225Z,6.90
2024-01-05T04:21:53.130Z,6.90
2024-01-05T04:24:21.343Z,6.90
2024-01-05T04:26:51.615Z,7.00
2024-01-05T04:29:19.923Z,7.00
2024-01-05T04:31:48.431Z,7.00
2024-01-05T04:34:16.816Z,7.00
2024-01-05T04:36:46.143Z,7.00
2024-01-05T04:39:14.632Z,7.00
2024-01-05T04:41:43.156Z,7.10
2024-01-05T04:44:12.644Z,7.00
2024-01-05T04:46:41.180Z,7.00
2024-01-05T04:49:09.441Z,7.00
2024-01-05T04:51:38.772Z,7.00
2024-01-05T04:54:07.813Z,6.90
2024-01-05T04:56:36.139Z,7.00
2024-01-05T04:59:04.602Z,6.90
2024-01-05T05:01:36.805Z,6.90
2024-01-05T05:04:05.410Z,6.90
2024-01-05T05:06:34.145Z,6.90
2024-01-05T05:09:02.822Z,6.80
2024-01-05T05:11:31.048Z,6.90
2024-01-05T05:13:59.394Z,6.90
2024-01-05T05:16:27.759Z,6.90
2024-01-05T05:18:57.525Z,6.90
2024-01-05T05:21:28.187Z,6.80
2024-01-05T05:23:57.207Z,6.80
2024-01-05T05:26:25.469Z,6.80
2024-01-05T05:28:53.890Z,6.90
2024-01-05T05:31:22.602Z,6.80
2024-01-05T05:33:51.251Z,6.90
2024-01-05T05:36:21.506Z,6.80
2024-01-05T05:38:50.194Z,6.80
2024-01-05T05:41:18.511Z,6.90
2024-01-05T05:43:48.293Z,6.90
2024-01-05T05:46:16.885Z,6.90
2024-01-05T05:48:45.668Z,6.90
2024-01-05T05:51:14.082Z,6.90
2024-01-05T05:53:44.010Z,6.90
2024-01-05T05:56:13.519Z,6.90
2024-01-05T05:58:41.849Z,6.90
2024-01-05T06:01:11.614Z,6.90
2024-01-05T06:03:40.133Z,6.90
2024-01-05T06:06:20.285Z,7.00
2024-01-05T06:08:50.248Z,7.00
2024-01-05T06:11:19.670Z,7.10
2024-01-05T06:13:48.831Z,7.00
2024-01-05T06:16:17.319Z,7.00
2024-01-05T06:18:46.343Z,7.00
2024-01-05T06:21:15.130Z,7.00
2024-01-05T06:23:43.685Z,6.90
2024-01-05T06:26:14.053Z,6.90
2024-01-05T06:28:42.292Z,6.80
2024-01-05T06:31:11.462Z,6.80
2024-01-05T06:33:39.753Z,6.80
2024-01-05T06:36:09.142Z,6.70
2024-01-05T06:38:37.422Z,6.70
2024-01-05T06:41:06.790Z,6.80
2024-01-05T06:43:36.716Z,6.70
2024-01-05T06:46:05.309Z,6.70
2024-01-05T06:48:34.175Z,6.70
2024-01-05T06:51:02.741Z,6.70
2024-01-05T06:53:30.976Z,6.70
2024-01-05T06:55:59.270Z,6.70
2024-01-05T06:58:29.073Z,6.70
2024-01-05T07:00:58.898Z,6.70
2024-01-05T07:03:28.053Z,6.70
2024-01-05T07:05:58.041Z,6.60
2024-01-05T07:08:26.431Z,6.70
2024-01-05T07:10:55.392Z,6.70
2024-01-05T07:13:24.162Z,6.70
2024-01-05T07:15:52.606Z,6.80
2024-01-05T07:18:24.954Z,6.70
2024-01-05T07:20:54.136Z,6.90
2024-01-05T07:23:25.305Z,6.90
2024-01-05T07:25:53.526Z,7.00
2024-01-05T07:28:21.970Z,6.90
2024-01-05T07:30:50.258Z,6.90
2024-01-05T07:33:19.085Z,7.00
2024-01-05T07:35:49.501Z,7.00
2024-01-05T07:38:17.725Z,6.90
2024-01-05T07:40:46.310Z,6.90
2024-01-05T07:43:15.374Z,6.90
2024-01-05T07:45:43.895Z,7.00
2024-01-05T07:48:12.858Z,7.00
2024-01-05T07:50:41.325Z,7.10
2024-01-05T07:53:11.533Z,7.20
2024-01-05T07:55:40.713Z,7.20
2024-01-05T07:58:08.992Z,7.20
2024-01-05T08:00:38.045Z,7.30
2024-01-05T08:03:07.818Z,7.40
2024-01-05T08:05:36.414Z,7.40
2024-01-05T08:08:05.442Z,7.40
2024-01-05T08:10:35.511Z,7.40
2024-01-05T08:13:03.977Z,7.50
2024-01-05T08:15:32.957Z,7.40
2024-01-05T08:18:01.393Z,7.50
2024-01-05T08:20:33.085Z,7.60
2024-01-05T08:23:03.153Z,7.60
2024-01-05T08:25:31.647Z,7.60
2024-01-05T08:28:03.450Z,7.70
2024-01-05T08:30:32.179Z,7.80
2024-01-05T08:33:00.659Z,7.90
2024-01-05T08:35:28.964Z,7.80
2024-01-05T08:37:57.317Z,7.90
2024-01-05T08:40:27.840Z,8.00
2024-01-05T08:42:56.639Z,8.10
2024-01-05T08:45:28.797Z,8.00
2024-01-05T08:47:57.718Z,8.10
2024-01-05T08:50:26.137Z,8.10
2024-01-05T08:52:54.682Z,8.00
2024-01-05T08:55:23.042Z,8.00
2024-01-05T08:57:51.259Z,7.90
2024-01-05T09:00:20.494Z,7.80
2024-01-05T09:02:50.476Z,7.80
2024-01-05T09:05:18.918Z,7.70
2024-01-05T09:07:47.372Z,7.60
2024-01-05T09:10:15.604Z,7.60
2024-01-05T09:12:44.373Z,7.60
2024-01-05T09:15:12.964Z,7.50
2024-01-05T09:17:41.474Z,7.50
2024-01-05T09:20:13.587Z,7.50
2024-01-05T09:22:42.054Z,7.40
2024-01-05T09:25:10.924Z,7.60
2024-01-05T09:27:39.403Z,7.60
2024-01-05T09:30:09.716Z,7.60
2024-01-05T09:32:38.057Z,7.60
2024-01-05T09:35:10.133Z,7.70
2024-01-05T09:37:40.472Z,7.80
2024-01-05T09:40:12.730Z,7.80
2024-01-05T09:42:43.028Z,7.80
2024-01-05T09:45:13.308Z,7.80
2024-01-05T09:47:44.426Z,7.80
2024-01-05T09:50:14.568Z,7.90
2024-01-05T09:52:45.162Z,8.00
2024-01-05T09:55:14.061Z,7.90
2024-01-05T09:57:43.967Z,7.90
2024-01-05T10:00:18.323Z,8.10
2024-01-05T10:02:58.950Z,8.10
2024-01-05T10:05:27.751Z,8.20
2024-01-05T10:07:57.793Z,8.20
2024-01-05T10:10:46.638Z,8.30
2024-01-05T10:13:15.074Z,8.40
2024-01-05T10:16:01.125Z,8.50
2024-01-05T10:18:30.565Z,8.60
2024-01-05T10:20:59.801Z,8.60
2024-01-05T10:23:30.130Z,8.50
2024-01-05T10:25:58.894Z,8.70
2024-01-05T10:28:32.309Z,8.70
2024-01-05T10:31:14.590Z,8.90
2024-01-05T10:33:54.044Z,8.90
2024-01-05T10:36:23.010Z,9.00
2024-01-05T10:38:53.800Z,9.10
2024-01-05T10:41:22.933Z,9.30
2024-01-05T10:43:52.329Z,9.20
2024-01-05T10:46:22.404Z,9.30
2024-01-05T10:48:52.426Z,9.30
2024-01-05T10:51:21.076Z,9.30
2024-01-05T10:53:50.661Z,9.30
2024-01-05T10:56:22.369Z,9.40
2024-01-05T10:58:51.278Z,9.40
2024-01-05T11:01:21.450Z,9.40
2024-01-05T11:03:52.738Z,9.50
2024-01-05T11:06:21.894Z,9.60
2024-01-05T11:09:03.994Z,9.60
2024-01-05T11:11:46.931Z,9.70
2024-01-05T11:14:36.483Z,9.60
2024-01-05T11:17:37.143Z,9.70
2024-01-05T11:20:31.250Z,9.70
2024-01-05T11:23:00.875Z,9.80
2024-01-05T11:25:29.775Z,9.90
2024-01-05T11:27:59.873Z,9.90
2024-01-05T11:30:42.253Z,9.80
2024-01-05T11:33:44.275Z,9.80
2024-01-05T11:36:14.131Z,9.90
2024-01-05T11:38:45.809Z,10.00
2024-01-05T11:41:19.528Z,9.90
2024-01-05T11:43:49.323Z,9.90
2024-01-05T11:46:20.832Z,9.90
2024-01-05T11:48:49.194Z,9.80
2024-01-05T11:51:19.383Z,9.80
2024-01-05T11:53:49.649Z,9.90
2024-01-05T11:56:22.808Z,9.90
2024-01-05T11:58:52.672Z,9.70
2024-01-05T12:01:21.392Z,9.80
2024-01-05T12:03:54.631Z,9.70
2024-01-05T12:06:23.683Z,9.70
2024-01-05T12:08:52.414Z,9.80
2024-01-05T12:11:22.544Z,9.80
2024-01-05T12:13:53.236Z,9.80
2024-01-05T12:16:25.939Z,9.80
2024-01-05T12:18:54.595Z,9.80
2024-01-05T12:21:24.139Z,9.60
2024-01-05T12:23:56.812Z,9.70
2024-01-05T12:26:26.132Z,9.70
2024-01-05T12:28:56.852Z,9.60
2024-01-05T12:31:25.888Z,9.60
2024-01-05T12:33:54.629Z,9.50
2024-01-05T12:36:29.353Z,9.60
2024-01-05T12:39:12.027Z,9.60
2024-01-05T12:41:44.004Z,9.60
2024-01-05T12:44:17.369Z,9.60
2024-01-05T12:46:48.679Z,9.60
2024-01-05T12:49:23.047Z,9.60
2024-01-05T12:51:54.334Z,9.70
2024-01-05T12:54:23.802Z,9.70
2024-01-05T12:56:55.501Z,9.80
2024-01-05T12:59:26.877Z,9.80
2024-01-05T13:02:07.568Z,10.00
2024-01-05T13:04:41.177Z,10.00
2024-01-05T13:07:14.539Z,10.00
2024-01-05T13:09:43.726Z,10.00
2024-01-05T13:12:12.554Z,10.00
2024-01-05T13:14:42.725Z,10.00
2024-01-05T13:17:12.401Z,9.90
2024-01-05T13:19:42.216Z,9.90
2024-01-05T13:22:12.958Z,10.00
2024-01-05T13:24:44.530Z,10.00
2024-01-05T13:27:15.179Z,9.80
2024-01-05T13:29:51.205Z,9.80
2024-01-05T13:32:25.332Z,9.80
2024-01-05T13:34:54.103Z,9.70
2024-01-05T13:37:25.612Z,9.70
2024-01-05T13:39:56.227Z,9.80
2024-01-05T13:42:26.508Z,9.80
2024-01-05T13:44:57.136Z,9.80
2024-01-05T13:47:26.131Z,9.80
2024-01-05T13:49:54.891Z,9.80
2024-01-05T13:52:24.312Z,9.70
2024-01-05T13:54:53.003Z,9.70
2024-01-05T13:57:22.944Z,9.70
2024-01-05T13:59:58.774Z,9.70
2024-01-05T14:02:27.136Z,9.60
2024-01-05T14:04:55.455Z,9.60
2024-01-05T14:07:23.822Z,9.50
2024-01-05T14:09:52.721Z,9.40
2024-01-05T14:12:21.441Z,9.50
2024-01-05T14:14:49.693Z,9.40
2024-01-05T14:17:21.263Z,9.30
2024-01-05T14:19:49.618Z,9.30
2024-01-05T14:22:19.826Z,9.30
2024-01-05T14:24:49.113Z,9.30
2024-01-05T14:27:18.018Z,9.40
2024-01-05T14:29:46.225Z,9.40
2024-01-05T14:32:14.607Z,9.30
2024-01-05T14:34:45.120Z,9.30
2024-01-05T14:37:13.457Z,9.30
2024-01-05T14:39:41.734Z,9.30
2024-01-05T14:42:10.391Z,9.30
2024-01-05T14:44:38.670Z,9.10
2024-01-05T14:47:07.089Z,9.00
2024-01-05T14:49:35.460Z,9.00
2024-01-05T14:52:06.309Z,9.00
2024-01-05T14:54:37.020Z,9.00
2024-01-05T14:57:05.718Z,9.00
2024-01-05T14:59:34.492Z,8.90
2024-01-05T15:02:04.407Z,8.90
2024-01-05T15:04:33.194Z,8.80
2024-01-05T15:07:01.573Z,8.80
2024-01-05T15:09:31.182Z,8.70
2024-01-05T15:12:01.182Z,8.70
2024-01-05T15:14:29.779Z,8.70
2024-01-05T15:16:58.142Z,8.70
2024-01-05T15:19:27.004Z,8.70
2024-01-05T15:21:57.444Z,8.80
2024-01-05T15:24:25.693Z,8.70
2024-01-05T15:26:55.510Z,8.70
2024-01-05T15:29:23.696Z,8.70
2024-01-05T15:31:53.768Z,8.70
2024-01-05T15:34:22.111Z,8.70
2024-01-05T15:36:51.564Z,8.60
2024-01-05T15:39:20.368Z,8.60
2024-01-05T15:41:48.830Z,8.50
2024-01-05T15:44:18.473Z,8.50
2024-01-05T15:46:46.938Z,8.50
2024-01-05T15:49:15.731Z,8.40
2024-01-05T15:51:47.307Z,8.40
2024-01-05T15:54:16.431Z,8.40
2024-01-05T15:56:44.950Z,8.30
2024-01-05T15:59:13.726Z,8.30
2024-01-05T16:01:48.606Z,8.30
2024-01-05T16:04:18.255Z,8.20
2024-01-05T16:06:47.596Z,8.30
2024-01-05T16:09:17.428Z,8.30
2024-01-05T16:11:46.325Z,8.20
2024-01-05T16:14:15.238Z,8.20
2024-01-05T16:16:45.862Z,8.20
2024-01-05T16:19:14.326Z,8.10
2024-01-05T16:21:43.304Z,8.20
2024-01-05T16:24:11.833Z,8.10
2024-01-05T16:26:40.369Z,8.10
2024-01-05T16:29:08.955Z,8.10
2024-01-05T16:31:37.685Z,8.00
2024-01-05T16:34:09.431Z,8.00
2024-01-05T16:36:38.153Z,8.00
2024-01-05T16:39:07.178Z,7.90
2024-01-05T16:41:36.532Z,7.90
2024-01-05T16:44:05.373Z,7.80
2024-01-05T16:46:34.103Z,7.70
2024-01-05T16:49:02.806Z,7.70
2024-01-05T16:51:32.915Z,7.60
2024-01-05T16:54:02.140Z,7.50
2024-01-05T16:56:33.986Z,7.30
2024-01-05T16:59:03.099Z,7.40
2024-01-05T17:01:34.447Z,7.40
2024-01-05T17:04:08.130Z,7.40
2024-01-05T17:06:41.735Z,7.40
2024-01-05T17:09:11.664Z,7.40
2024-01-05T17:11:40.193Z,7.40
2024-01-05T17:14:08.884Z,7.40
2024-01-05T17:16:37.660Z,7.30
2024-01-05T17:19:08.829Z,7.30
2024-01-05T17:21:42.876Z,7.30
2024-01-05T17:24:14.319Z,7.40
2024-01-05T17:26:43.153Z,7.30
2024-01-05T17:29:11.507Z,7.40
2024-01-05T17:31:39.995Z,7.30
2024-01-05T17:34:08.782Z,7.30
2024-01-05T17:36:40.781Z,7.40
2024-01-05T17:39:11.051Z,7.40
2024-01-05T17:41:40.398Z,7.50
2024-01-05T17:44:09.155Z,7.60
2024-01-05T17:46:39.624Z,7.70
2024-01-05T17:49:09.818Z,7.70
2024-01-05T17:51:40.709Z,7.70
2024-01-05T17:54:09.804Z,7.70
2024-01-05T17:56:39.107Z,7.80
2024-01-05T17:59:09.991Z,7.70
2024-01-05T18:01:44.907Z,7.70
2024-01-05T18:04:14.050Z,7.70
2024-01-05T18:06:45.422Z,7.70
2024-01-05T18:09:14.426Z,7.70
2024-01-05T18:11:44.486Z,7.50
2024-01-05T18:14:14.821Z,7.50
2024-01-05T18:16:44.175Z,7.50
2024-01-05T18:19:13.680Z,7.50
2024-01-05T18:21:48.646Z,7.50
2024-01-05T18:24:17.472Z,7.50
2024-01-05T18:26:46.057Z,7.60
2024-01-05T18:29:21.955Z,7.60
2024-01-05T18:31:57.870Z,7.60
2024-01-05T18:34:27.468Z,7.50
2024-01-05T18:36:59.002Z,7.50
2024-01-05T18:39:27.956Z,7.40
2024-01-05T18:41:56.203Z,7.50
2024-01-05T18:44:24.655Z,7.60
2024-01-05T18:46:54.332Z,7.50
2024-01-05T18:49:22.857Z,7.50
2024-01-05T18:51:53.344Z,7.50
2024-01-05T18:54:23.408Z,7.40
2024-01-05T18:56:52.460Z,7.30
2024-01-05T18:59:21.122Z,7.20
2024-01-05T19:01:49.887Z,7.30
2024-01-05T19:04:18.382Z,7.30
2024-01-05T19:06:47.957Z,7.40
2024-01-05T19:09:16.599Z,7.40
2024-01-05T19:11:46.986Z,7.40
2024-01-05T19:14:15.777Z,7.30
2024-01-05T19:16:44.937Z,7.30
2024-01-05T19:22:07.449Z,7.30
2024-01-05T19:24:40.989Z,7.40
2024-01-05T19:27:10.717Z,7.40
2024-01-05T19:29:42.113Z,7.30
2024-01-05T19:32:11.359Z,7.30
2024-01-05T19:34:40.063Z,7.30
2024-01-05T19:37:08.221Z,7.40
2024-01-05T19:39:36.886Z,7.40
2024-01-05T19:44:36.190Z,7.10
2024-01-05T19:47:04.804Z,7.10
2024-01-05T19:49:33.264Z,7.00
2024-01-05T19:52:03.538Z,7.00
2024-01-05T19:54:32.119Z,6.90
2024-01-05T19:57:01.057Z,7.00
2024-01-05T19:59:29.303Z,6.90
2024-01-05T20:01:58.907Z,7.00
2024-01-05T20:04:27.753Z,6.90
2024-01-05T20:06:56.915Z,6.90
2024-01-05T20:09:25.387Z,7.00
2024-01-05T20:11:53.744Z,7.00
2024-01-05T20:14:22.751Z,7.00
2024-01-05T20:16:52.145Z,7.10
2024-01-05T20:19:21.690Z,7.00
2024-01-05T20:21:50.150Z,7.00
2024-01-05T20:24:19.539Z,7.00
2024-01-05T20:26:48.184Z,7.00
2024-01-05T20:29:16.801Z,6.90
2024-01-05T20:31:45.139Z,7.00
2024-01-05T20:34:13.595Z,7.00
2024-01-05T20:36:43.230Z,6.80
2024-01-05T20:39:12.992Z,6.80
2024-01-05T20:41:41.495Z,6.90
2024-01-05T20:44:13.801Z,6.90
2024-01-05T20:46:46.150Z,6.90
2024-01-05T20:49:17.009Z,7.00
2024-01-05T20:51:47.013Z,7.00
2024-01-05T20:54:17.589Z,6.90
2024-01-05T20:56:46.248Z,7.00
2024-01-05T20:59:14.798Z,7.00
2024-01-05T21:01:44.422Z,7.00
2024-01-05T21:04:16.008Z,7.00
2024-01-05T21:06:47.025Z,6.90
2024-01-05T21:09:16.192Z,6.90
2024-01-05T21:11:44.749Z,6.90
2024-01-05T21:14:13.342Z,6.80
2024-01-05T21:16:43.179Z,6.90
2024-01-05T21:19:11.604Z,6.90
2024-01-05T21:21:43.553Z,6.80
2024-01-05T21:24:13.651Z,6.80
2024-01-05T21:26:45.566Z,6.80
2024-01-05T21:29:15.710Z,6.90
2024-01-05T21:31:48.794Z,6.80
2024-01-05T21:34:17.376Z,6.90
2024-01-05T21:36:46.023Z,6.80
2024-01-05T21:39:17.927Z,6.90
2024-01-05T21:41:47.893Z,6.80
2024-01-05T21:44:20.043Z,6.80
2024-01-05T21:46:48.293Z,6.80
2024-01-05T21:49:16.888Z,6.80
2024-01-05T21:51:46.769Z,6.80
2024-01-05T21:54:17.542Z,6.70
2024-01-05T21:56:45.778Z,6.70
2024-01-05T21:59:14.417Z,6.70
2024-01-05T22:01:42.890Z,6.80
2024-01-05T22:04:11.475Z,6.90
2024-01-05T22:06:40.083Z,6.80
2024-01-05T22:09:09.825Z,6.80
2024-01-05T22:11:44.432Z,6.80
2024-01-05T22:14:13.248Z,6.70
2024-01-05T22:16:42.485Z,6.80
2024-01-05T22:19:14.336Z,6.90
2024-01-05T22:21:43.474Z,6.90
2024-01-05T22:24:11.752Z,6.90
2024-01-05T22:26:40.425Z,6.90
2024-01-05T22:29:11.451Z,6.80
2024-01-05T22:31:40.635Z,6.80
2024-01-05T22:34:09.342Z,6.80
2024-01-05T22:36:37.918Z,6.70
2024-01-05T22:39:06.532Z,6.80
2024-01-05T22:41:34.872Z,6.70
2024-01-05T22:44:03.133Z,6.70
2024-01-05T22:46:32.937Z,6.70
2024-01-05T22:49:01.370Z,6.60
2024-01-05T22:51:30.494Z,6.50
2024-01-05T22:53:59.485Z,6.50
2024-01-05T22:56:28.040Z,6.50
2024-01-05T22:58:56.184Z,6.60
2024-01-05T23:01:25.209Z,6.50
2024-01-05T23:03:55.053Z,6.50
2024-01-05T23:06:24.529Z,6.40
2024-01-05T23:08:52.788Z,6.40
2024-01-05T23:11:20.984Z,6.50
2024-01-05T23:13:49.205Z,6.50
2024-01-05T23:16:19.268Z,6.40
2024-01-05T23:18:47.836Z,6.50
2024-01-05T23:21:17.752Z,6.40
2024-01-05T23:23:46.004Z,6.40
2024-01-05T23:26:19.813Z,6.40
2024-01-05T23:28:50.743Z,6.40
2024-01-05T23:31:19.236Z,6.40
2024-01-05T23:34:03.683Z,6.40
2024-01-05T23:36:38.885Z,6.30
2024-01-05T23:39:07.555Z,6.40
2024-01-05T23:41:37.306Z,6.50
2024-01-05T23:44:06.770Z,6.40
2024-01-05T23:46:34.940Z,6.30
2024-01-05T23:49:03.249Z,6.30
2024-01-05T23:51:31.589Z,6.30
2024-01-05T23:54:01.600Z,6.30
2024-01-05T23:56:30.050Z,6.20
2024-01-05T23:58:58.635Z,6.30
